Time;durP1;ratioP1;P1;durP2;ratioP2;P2;SDS_P1;SDS_P2;PMS_P1;PMS_P2;Temp;Humidity;BMP_temperature;BMP_pressure;BME280_temperature;BME280_humidity;BME280_pressure;Samples;Min_cycle;Max_cycle;Signal;HPM_P1;HPM_P2
2022/05/25 00:00:37;;;;;;;0.35;0.35;;;14.50;99.90;;;;;;5080296;28;20483;-72
2022/05/25 00:03:05;;;;;;;0.00;0.00;;;14.60;99.90;;;;;;5074028;28;20054;-73
2022/05/25 00:05:31;;;;;;;0.00;0.00;;;14.80;99.90;;;;;;5076908;28;20026;-72
2022/05/25 00:07:58;;;;;;;0.10;0.10;;;14.90;99.90;;;;;;5080975;28;20071;-73
2022/05/25 00:10:24;;;;;;;0.00;0.00;;;14.80;99.90;;;;;;5072099;28;20040;-73
2022/05/25 00:12:50;;;;;;;0.00;0.00;;;14.70;99.90;;;;;;5072916;28;20024;-73
2022/05/25 00:15:17;;;;;;;0.00;0.00;;;14.80;99.90;;;;;;5075460;28;20033;-72
2022/05/25 00:17:43;;;;;;;0.00;0.00;;;15.00;99.90;;;;;;5072615;28;20025;-73
2022/05/25 00:20:10;;;;;;;4.75;4.55;;;15.00;99.90;;;;;;5072683;28;20048;-73
2022/05/25 00:22:49;;;;;;;0.00;0.00;;;15.20;99.90;;;;;;5072914;28;20031;-73
2022/05/25 00:25:33;;;;;;;0.38;0.38;;;15.40;99.90;;;;;;5076016;28;20056;-73
2022/05/25 00:28:00;;;;;;;0.10;0.10;;;15.30;99.90;;;;;;5071515;28;20079;-73
2022/05/25 00:30:28;;;;;;;0.10;0.10;;;15.70;99.90;;;;;;5072383;28;20032;-72
2022/05/25 00:32:55;;;;;;;0.00;0.00;;;16.10;99.90;;;;;;5072400;28;20021;-73
2022/05/25 00:35:24;;;;;;;0.05;0.05;;;16.40;99.90;;;;;;5075668;28;20037;-73
2022/05/25 00:37:50;;;;;;;0.65;0.65;;;16.80;99.90;;;;;;5079490;28;20099;-73
2022/05/25 00:40:41;;;;;;;1.98;1.45;;;17.30;99.90;;;;;;5081032;28;20067;-73
2022/05/25 00:43:08;;;;;;;0.43;0.43;;;17.70;99.90;;;;;;5070949;28;20058;-72
2022/05/25 00:45:39;;;;;;;0.22;0.22;;;18.10;99.90;;;;;;5092075;28;20035;-73
2022/05/25 00:48:07;;;;;;;0.00;0.00;;;18.30;99.90;;;;;;5094252;28;20172;-73
2022/05/25 00:51:21;;;;;;;0.00;0.00;;;18.70;99.90;;;;;;5095527;28;20028;-73
2022/05/25 00:53:22;;;;;;;0.00;0.00;;;19.10;99.90;;;;;;5065240;28;20036;-73
2022/05/25 00:55:49;;;;;;;0.00;0.00;;;19.60;99.90;;;;;;5081640;28;20027;-73
2022/05/25 00:58:15;;;;;;;0.10;0.10;;;20.10;99.90;;;;;;5089466;28;20035;-73
2022/05/25 01:00:41;;;;;;;0.00;0.00;;;20.60;99.90;;;;;;5089557;28;20024;-73
2022/05/25 01:03:11;;;;;;;0.00;0.00;;;21.20;99.90;;;;;;5076885;28;20050;-73
2022/05/25 01:06:08;;;;;;;0.00;0.00;;;21.80;99.90;;;;;;5091816;28;20081;-73
2022/05/25 01:08:49;;;;;;;0.08;0.08;;;22.20;99.90;;;;;;5075972;28;20089;-74
2022/05/25 01:11:30;;;;;;;0.08;0.08;;;22.20;99.90;;;;;;5086219;28;20024;-74
2022/05/25 01:13:59;;;;;;;0.00;0.00;;;22.60;99.90;;;;;;5082260;28;20039;-74
2022/05/25 01:16:45;;;;;;;0.00;0.00;;;22.90;99.90;;;;;;5089135;28;20545;-73
2022/05/25 01:19:55;;;;;;;1.45;1.38;;;23.60;99.90;;;;;;5086517;28;20055;-73
2022/05/25 01:22:59;;;;;;;0.00;0.00;;;23.90;99.90;;;;;;5084192;28;20145;-73
2022/05/25 01:25:31;;;;;;;0.00;0.00;;;23.40;99.90;;;;;;5086684;28;20027;-74
2022/05/25 01:28:28;;;;;;;4.72;4.28;;;23.00;99.90;;;;;;5080429;28;20035;-74
2022/05/25 01:30:56;;;;;;;6.03;3.42;;;23.30;99.90;;;;;;5084051;28;20536;-73
2022/05/25 01:33:29;;;;;;;0.00;0.00;;;23.50;99.90;;;;;;5079408;28;20458;-74
2022/05/25 01:36:19;;;;;;;0.00;0.00;;;23.80;99.90;;;;;;5089796;28;20120;-74
2022/05/25 01:38:54;;;;;;;0.00;0.00;;;23.80;99.90;;;;;;5078108;28;20023;-73
2022/05/25 01:41:29;;;;;;;0.00;0.00;;;24.00;99.90;;;;;;5084376;28;20046;-73
2022/05/25 01:44:01;;;;;;;0.00;0.00;;;24.20;99.90;;;;;;5084050;28;20082;-72
2022/05/25 01:46:55;;;;;;;5.68;3.53;;;24.20;99.90;;;;;;5077511;28;20032;-73
2022/05/25 01:49:25;;;;;;;0.00;0.00;;;24.70;99.90;;;;;;5076286;28;20297;-74
2022/05/25 01:52:00;;;;;;;0.32;0.32;;;24.30;99.90;;;;;;5079438;28;20044;-74
2022/05/25 01:54:32;;;;;;;0.00;0.00;;;24.80;99.90;;;;;;5082693;28;20028;-72
2022/05/25 01:57:01;;;;;;;11.35;10.60;;;25.10;99.90;;;;;;5089101;28;20031;-73
2022/05/25 01:59:27;;;;;;;6.18;4.45;;;25.60;99.90;;;;;;5089076;28;20052;-73
2022/05/25 02:04:44;;;;;;;0.10;0.10;;;24.60;99.90;;;;;;5077151;28;20513;-73
2022/05/25 02:07:28;;;;;;;0.32;0.32;;;24.20;99.90;;;;;;5081717;28;20023;-73
2022/05/25 02:10:10;;;;;;;0.10;0.10;;;25.10;99.90;;;;;;5090771;28;21347;-74
2022/05/25 02:12:51;;;;;;;1.27;1.10;;;25.40;98.70;;;;;;5085938;28;20029;-73
2022/05/25 02:15:48;;;;;;;0.50;0.50;;;25.40;96.70;;;;;;5087021;28;20124;-73
2022/05/25 02:18:32;;;;;;;0.00;0.00;;;25.30;93.70;;;;;;5082635;28;20525;-72
2022/05/25 02:21:12;;;;;;;0.38;0.38;;;24.90;95.00;;;;;;5084248;28;20024;-73
2022/05/25 02:24:10;;;;;;;0.03;0.03;;;24.80;95.50;;;;;;5077501;28;20013;-74
2022/05/25 02:26:42;;;;;;;0.08;0.08;;;25.40;94.40;;;;;;5082990;28;20386;-74
2022/05/25 02:29:10;;;;;;;1.65;1.33;;;25.60;92.30;;;;;;5091464;28;20028;-75
2022/05/25 02:31:45;;;;;;;1.73;1.65;;;25.90;92.40;;;;;;5079646;28;20027;-73
2022/05/25 02:34:16;;;;;;;0.40;0.40;;;26.30;90.10;;;;;;5079876;28;20031;-72
2022/05/25 02:36:45;;;;;;;6.40;5.68;;;26.70;89.30;;;;;;5074422;28;20020;-72
2022/05/25 02:39:12;;;;;;;6.97;6.50;;;26.90;87.30;;;;;;5079394;28;20040;-73
2022/05/25 02:41:53;;;;;;;0.85;0.70;;;27.20;83.50;;;;;;5075278;28;20059;-74
2022/05/25 02:44:20;;;;;;;0.50;0.50;;;27.90;81.70;;;;;;5081091;28;20039;-75
2022/05/25 02:46:46;;;;;;;2.50;0.65;;;28.60;76.40;;;;;;5092252;28;20024;-73
2022/05/25 02:49:13;;;;;;;0.32;0.32;;;29.00;71.20;;;;;;5075735;28;20373;-73
2022/05/25 02:51:40;;;;;;;0.00;0.00;;;29.60;67.00;;;;;;5075424;28;20021;-74
2022/05/25 02:54:07;;;;;;;0.10;0.10;;;29.90;64.10;;;;;;5090452;28;20032;-74
2022/05/25 02:56:33;;;;;;;0.00;0.00;;;30.00;65.00;;;;;;5085366;28;20020;-74
2022/05/25 02:59:00;;;;;;;0.00;0.00;;;30.20;61.60;;;;;;5081188;28;21150;-74
2022/05/25 03:01:26;;;;;;;0.00;0.00;;;30.50;59.30;;;;;;5081471;28;20024;-74
2022/05/25 03:03:52;;;;;;;0.10;0.10;;;30.30;61.50;;;;;;5079010;28;20020;-74
2022/05/25 03:06:20;;;;;;;7.93;3.35;;;30.30;61.50;;;;;;5077708;28;20638;-74
2022/05/25 03:08:47;;;;;;;0.00;0.00;;;30.50;60.60;;;;;;5079101;28;20071;-74
2022/05/25 03:11:13;;;;;;;0.17;0.15;;;30.30;61.40;;;;;;5081690;28;20032;-74
2022/05/25 03:13:41;;;;;;;0.35;0.35;;;29.20;61.70;;;;;;5072248;28;20028;-74
2022/05/25 03:16:08;;;;;;;0.20;0.20;;;29.40;61.00;;;;;;5074594;28;20024;-74
2022/05/25 03:18:34;;;;;;;0.85;0.75;;;28.10;64.60;;;;;;5077476;28;20124;-73
2022/05/25 03:21:00;;;;;;;0.28;0.28;;;28.30;66.80;;;;;;5082883;28;20024;-73
2022/05/25 03:23:28;;;;;;;1.88;1.75;;;28.40;67.10;;;;;;5070739;28;20027;-75
2022/05/25 03:25:54;;;;;;;4.22;1.30;;;26.60;69.80;;;;;;5071791;28;20067;-74
2022/05/25 03:28:20;;;;;;;4.43;2.58;;;26.60;71.20;;;;;;5072831;28;20028;-74
2022/05/25 03:30:47;;;;;;;2.15;1.55;;;26.90;71.10;;;;;;5074667;28;20099;-73
2022/05/25 03:33:13;;;;;;;0.10;0.10;;;27.20;71.60;;;;;;5069884;28;20140;-75
2022/05/25 03:35:40;;;;;;;2.20;1.75;;;27.00;72.90;;;;;;5068876;28;20078;-73
2022/05/25 03:38:06;;;;;;;13.10;4.72;;;27.00;72.50;;;;;;5073066;28;20039;-74
2022/05/25 03:40:33;;;;;;;0.60;0.60;;;26.60;73.10;;;;;;5075376;28;20861;-75
2022/05/25 03:42:59;;;;;;;1.45;1.35;;;26.40;76.80;;;;;;5074310;28;20048;-74
2022/05/25 03:45:27;;;;;;;0.10;0.10;;;26.40;79.20;;;;;;5074224;28;20137;-74
2022/05/25 03:47:53;;;;;;;0.00;0.00;;;26.00;79.70;;;;;;5075154;28;20108;-72
2022/05/25 03:50:19;;;;;;;2.85;2.70;;;25.50;83.60;;;;;;5072892;28;20039;-74
2022/05/25 03:52:47;;;;;;;0.45;0.45;;;26.00;78.40;;;;;;5072178;28;20112;-73
2022/05/25 03:55:13;;;;;;;1.23;0.65;;;25.50;80.20;;;;;;5076332;28;20024;-73
2022/05/25 03:57:39;;;;;;;0.52;0.52;;;25.20;85.90;;;;;;5074076;28;20353;-73
2022/05/25 04:00:06;;;;;;;1.70;1.60;;;24.60;90.20;;;;;;5072431;28;20020;-74
2022/05/25 04:02:32;;;;;;;4.88;2.42;;;25.10;92.40;;;;;;5076727;28;20020;-74
2022/05/25 04:05:07;;;;;;;0.50;0.50;;;24.90;93.10;;;;;;5069378;28;20435;-75
2022/05/25 04:07:36;;;;;;;1.27;1.00;;;24.70;92.30;;;;;;5077316;28;20060;-74
2022/05/25 04:10:03;;;;;;;0.00;0.00;;;24.80;92.20;;;;;;5077082;28;20120;-74
2022/05/25 04:12:30;;;;;;;0.00;0.00;;;24.20;97.40;;;;;;5073119;28;20029;-75
2022/05/25 04:14:56;;;;;;;0.00;0.00;;;24.30;93.90;;;;;;5070224;28;20033;-73
2022/05/25 04:17:22;;;;;;;0.00;0.00;;;24.60;94.50;;;;;;5068884;28;20066;-75
2022/05/25 04:19:50;;;;;;;0.32;0.32;;;25.00;93.90;;;;;;5080385;28;20103;-74
2022/05/25 04:22:17;;;;;;;0.00;0.00;;;25.20;91.90;;;;;;5085352;28;20025;-74
2022/05/25 04:24:43;;;;;;;0.22;0.20;;;25.40;90.40;;;;;;5080708;27;20127;-73
2022/05/25 04:27:09;;;;;;;10.65;1.85;;;25.20;90.90;;;;;;5083576;28;20028;-73
2022/05/25 04:29:38;;;;;;;0.70;0.70;;;25.20;85.20;;;;;;5078647;28;20037;-74
2022/05/25 04:32:06;;;;;;;0.03;0.03;;;25.10;84.30;;;;;;5081500;28;20367;-73
2022/05/25 04:34:33;;;;;;;3.20;2.90;;;25.10;89.10;;;;;;5073854;28;20109;-73
2022/05/25 04:37:48;;;;;;;0.00;0.00;;;25.00;83.00;;;;;;5082145;28;20509;-74
2022/05/25 04:39:45;;;;;;;0.00;0.00;;;25.40;81.80;;;;;;5091168;28;20032;-73
2022/05/25 04:42:12;;;;;;;0.32;0.30;;;25.60;78.20;;;;;;5078715;28;20120;-73
2022/05/25 04:44:38;;;;;;;0.35;0.35;;;25.10;73.60;;;;;;5075367;28;20237;-74
2022/05/25 04:47:08;;;;;;;0.00;0.00;;;24.70;77.20;;;;;;5075943;28;20070;-74
2022/05/25 04:49:35;;;;;;;0.28;0.28;;;25.00;79.50;;;;;;5079930;28;20482;-72
2022/05/25 04:52:02;;;;;;;4.95;1.45;;;25.30;79.50;;;;;;5079170;28;20036;-73
2022/05/25 04:54:28;;;;;;;1.35;1.25;;;24.80;82.70;;;;;;5074885;28;20024;-76
2022/05/25 04:59:39;;;;;;;3.53;3.20;;;24.80;89.80;;;;;;5079056;28;20464;-74
2022/05/25 05:02:05;;;;;;;0.00;0.00;;;24.90;73.80;;;;;;5074450;28;20072;-73
2022/05/25 05:04:31;;;;;;;2.05;1.63;;;24.80;75.20;;;;;;5076298;28;20124;-73
2022/05/25 05:06:57;;;;;;;0.13;0.13;;;24.80;76.20;;;;;;5075287;28;20028;-77
2022/05/25 05:09:23;;;;;;;0.00;0.00;;;25.10;74.40;;;;;;5076352;28;20044;-76
2022/05/25 05:11:49;;;;;;;0.10;0.10;;;25.30;76.60;;;;;;5084619;28;20112;-74
2022/05/25 05:14:15;;;;;;;0.75;0.55;;;25.60;72.20;;;;;;5078271;28;20036;-75
2022/05/25 05:16:41;;;;;;;8.73;7.72;;;25.70;73.70;;;;;;5078228;28;20029;-72
2022/05/25 05:19:08;;;;;;;0.28;0.28;;;25.20;78.00;;;;;;5079643;28;20052;-74
2022/05/25 05:21:34;;;;;;;0.88;0.43;;;25.30;77.10;;;;;;5083537;28;20056;-76
2022/05/25 05:24:01;;;;;;;0.25;0.25;;;25.20;74.90;;;;;;5071577;28;20043;-74
2022/05/25 05:26:27;;;;;;;0.00;0.00;;;25.40;75.70;;;;;;5073671;28;20547;-75
2022/05/25 05:28:56;;;;;;;0.00;0.00;;;25.70;74.90;;;;;;5078080;28;20020;-74
2022/05/25 05:31:22;;;;;;;0.57;0.20;;;26.00;72.90;;;;;;5066283;28;20441;-74
2022/05/25 05:33:48;;;;;;;0.00;0.00;;;25.60;71.70;;;;;;5059763;28;20040;-75
2022/05/25 05:36:19;;;;;;;0.98;0.90;;;25.70;74.30;;;;;;5058944;28;20039;-75
2022/05/25 05:38:59;;;;;;;1.23;1.13;;;25.40;74.70;;;;;;5062356;28;20032;-76
2022/05/25 05:41:33;;;;;;;1.08;0.88;;;25.40;76.60;;;;;;5071948;28;20036;-76
2022/05/25 07:31:05;;;;;;;0.00;0.00;;;26.50;68.30;;;;;;5040179;28;20339;-73
2022/05/25 07:33:32;;;;;;;0.00;0.00;;;26.70;67.50;;;;;;5036739;28;20040;-74
2022/05/25 07:35:58;;;;;;;0.00;0.00;;;27.10;65.20;;;;;;5040983;28;20470;-74
2022/05/25 07:38:26;;;;;;;0.00;0.00;;;27.50;61.70;;;;;;5046876;28;20032;-74
2022/05/25 07:40:52;;;;;;;7.32;1.35;;;27.90;61.40;;;;;;5046055;28;20489;-74
2022/05/25 07:43:20;;;;;;;1.25;0.93;;;27.70;63.70;;;;;;5038725;28;20634;-74
2022/05/25 07:45:47;;;;;;;0.40;0.40;;;27.30;66.20;;;;;;5040644;28;20345;-75
2022/05/25 07:48:14;;;;;;;0.10;0.10;;;27.10;65.00;;;;;;5045921;28;20028;-75
2022/05/25 07:50:42;;;;;;;1.42;0.93;;;27.20;67.10;;;;;;5045674;28;20405;-74
2022/05/25 07:55:55;;;;;;;0.00;0.00;;;27.10;65.40;;;;;;5045508;28;20785;-74
2022/05/25 07:58:21;;;;;;;1.85;1.75;;;27.60;64.80;;;;;;5045587;28;20067;-76
2022/05/25 08:00:51;;;;;;;0.10;0.10;;;28.10;64.50;;;;;;5041921;28;20041;-74
2022/05/25 08:06:02;;;;;;;0.22;0.20;;;27.80;61.00;;;;;;5048174;28;21303;-76
2022/05/25 08:08:28;;;;;;;0.10;0.10;;;28.10;61.20;;;;;;5043564;28;20032;-77
2022/05/25 08:11:01;;;;;;;0.10;0.10;;;28.50;59.50;;;;;;5043616;28;20531;-75
2022/05/25 08:13:28;;;;;;;0.00;0.00;;;28.80;58.20;;;;;;5039362;28;20556;-75
2022/05/25 08:15:54;;;;;;;0.28;0.15;;;28.80;58.00;;;;;;5042168;28;20025;-74
2022/05/25 08:18:21;;;;;;;0.52;0.52;;;28.50;58.00;;;;;;5044432;28;20021;-74
2022/05/25 08:20:47;;;;;;;0.00;0.00;;;28.40;59.70;;;;;;5038559;28;20040;-75
2022/05/25 08:23:15;;;;;;;0.00;0.00;;;28.80;58.50;;;;;;5040449;28;20045;-76
2022/05/25 08:25:43;;;;;;;0.10;0.10;;;28.30;58.80;;;;;;5042542;28;20536;-75
2022/05/25 08:28:12;;;;;;;0.00;0.00;;;28.60;59.10;;;;;;5005439;28;20112;-74
2022/05/25 08:30:41;;;;;;;6.53;5.93;;;28.70;58.50;;;;;;5039620;28;20072;-74
2022/05/25 08:33:07;;;;;;;3.70;1.50;;;29.20;56.80;;;;;;5022839;28;20025;-74
2022/05/25 08:35:33;;;;;;;0.00;0.00;;;28.50;58.20;;;;;;5039423;28;20025;-73
2022/05/25 08:37:59;;;;;;;0.00;0.00;;;28.80;58.70;;;;;;5040168;28;20067;-74
2022/05/25 08:40:28;;;;;;;11.88;4.28;;;28.50;58.20;;;;;;5032236;28;20074;-75
2022/05/25 08:43:24;;;;;;;0.00;0.00;;;28.90;56.60;;;;;;5017032;28;20489;-74
2022/05/25 08:46:04;;;;;;;4.53;3.05;;;29.40;56.00;;;;;;5020331;28;20183;-76
2022/05/25 08:48:32;;;;;;;2.75;0.38;;;29.20;55.50;;;;;;5026704;28;20025;-76
2022/05/25 08:51:03;;;;;;;12.93;7.55;;;28.90;55.30;;;;;;5016595;28;20025;-75
2022/05/25 08:53:29;;;;;;;0.20;0.20;;;28.40;56.60;;;;;;5018754;28;20033;-76
2022/05/25 08:56:21;;;;;;;0.00;0.00;;;28.40;56.00;;;;;;5018884;28;20026;-75
2022/05/25 08:58:49;;;;;;;1.20;1.08;;;28.60;56.40;;;;;;5023520;28;20057;-75
2022/05/25 09:01:24;;;;;;;0.00;0.00;;;28.60;57.60;;;;;;5023898;28;20044;-76
2022/05/25 09:03:59;;;;;;;0.10;0.10;;;28.30;56.70;;;;;;5020838;28;20521;-75
2022/05/25 09:06:25;;;;;;;0.05;0.05;;;28.70;58.00;;;;;;5022733;28;20072;-73
2022/05/25 09:09:03;;;;;;;0.00;0.00;;;28.60;57.40;;;;;;5027144;28;20030;-75
2022/05/25 09:11:41;;;;;;;0.55;0.40;;;28.70;57.50;;;;;;5022277;28;20030;-74
2022/05/25 09:14:44;;;;;;;3.70;1.08;;;29.10;55.90;;;;;;5025220;28;20034;-74
2022/05/25 09:17:32;;;;;;;0.00;0.00;;;28.70;56.80;;;;;;5021874;28;20505;-75
2022/05/25 09:20:02;;;;;;;0.85;0.82;;;28.20;57.50;;;;;;5029271;28;20832;-74
2022/05/25 09:22:31;;;;;;;0.03;0.03;;;28.20;57.90;;;;;;5029279;28;20029;-74
2022/05/25 09:25:00;;;;;;;0.30;0.30;;;28.30;58.00;;;;;;5025215;28;20029;-74
2022/05/25 09:27:40;;;;;;;0.00;0.00;;;28.60;57.60;;;;;;5025597;28;20021;-74
2022/05/25 09:30:08;;;;;;;0.00;0.00;;;29.10;57.30;;;;;;5028397;28;20045;-74
2022/05/25 09:32:59;;;;;;;0.55;0.55;;;29.20;56.30;;;;;;5030131;28;20521;-73
2022/05/25 09:35:38;;;;;;;22.45;20.38;;;29.60;55.00;;;;;;5030558;28;20101;-74
2022/05/25 09:38:47;;;;;;;0.00;0.00;;;30.00;54.60;;;;;;5026956;28;20029;-75
2022/05/25 09:41:19;;;;;;;0.00;0.00;;;30.30;53.30;;;;;;5009640;28;20038;-74
2022/05/25 09:43:46;;;;;;;1.95;0.65;;;29.50;54.30;;;;;;5024411;28;20101;-72
2022/05/25 09:46:35;;;;;;;7.32;0.90;;;29.70;54.70;;;;;;5020236;28;20040;-73
2022/05/25 09:49:12;;;;;;;0.00;0.00;;;29.80;54.20;;;;;;5026144;28;20037;-74
2022/05/25 09:51:50;;;;;;;1.13;1.02;;;29.30;54.60;;;;;;5025506;28;20476;-72
2022/05/25 09:54:25;;;;;;;0.10;0.10;;;29.30;54.60;;;;;;5026395;28;20382;-74
2022/05/25 09:56:58;;;;;;;2.95;0.73;;;29.60;53.50;;;;;;5028783;28;20025;-72
2022/05/25 09:59:50;;;;;;;0.00;0.00;;;29.40;53.40;;;;;;5021892;28;20021;-75
2022/05/25 10:02:51;;;;;;;2.22;2.13;;;29.20;54.20;;;;;;5026880;28;20052;-74
2022/05/25 10:05:32;;;;;;;2.90;2.20;;;28.90;53.50;;;;;;5024771;28;20072;-74
2022/05/25 10:08:15;;;;;;;0.00;0.00;;;28.90;53.40;;;;;;5018840;28;20047;-74
2022/05/25 10:11:27;;;;;;;0.10;0.10;;;28.70;54.40;;;;;;5022049;28;20032;-75
2022/05/25 10:13:56;;;;;;;1.35;0.52;;;28.90;54.20;;;;;;5016881;28;20172;-74
2022/05/25 10:16:24;;;;;;;0.00;0.00;;;28.80;53.90;;;;;;5019229;28;20032;-74
2022/05/25 10:18:50;;;;;;;0.00;0.00;;;29.00;53.70;;;;;;5024455;28;20242;-73
2022/05/25 10:21:35;;;;;;;0.00;0.00;;;29.10;53.40;;;;;;5024629;28;20032;-75
2022/05/25 10:24:12;;;;;;;0.00;0.00;;;29.20;53.40;;;;;;5025525;28;20485;-75
2022/05/25 10:26:55;;;;;;;0.00;0.00;;;29.10;53.80;;;;;;5022864;28;20061;-75
2022/05/25 10:38:30;;;;;;;0.00;0.00;;;28.70;53.60;;;;;;5031253;28;20588;-74
2022/05/25 10:41:37;;;;;;;0.00;0.00;;;29.10;53.70;;;;;;5022712;28;20044;-75
2022/05/25 10:43:48;;;;;;;0.00;0.00;;;29.10;54.30;;;;;;5019965;28;20033;-75
2022/05/25 10:46:15;;;;;;;0.00;0.00;;;28.80;54.40;;;;;;5022046;28;20037;-74
2022/05/25 10:48:55;;;;;;;2.55;1.17;;;28.40;54.60;;;;;;5023157;28;20029;-74
2022/05/25 10:51:44;;;;;;;0.88;0.45;;;28.10;54.90;;;;;;5029793;28;20357;-74
2022/05/25 10:58:02;;;;;;;0.00;0.00;;;28.20;55.40;;;;;;5033418;28;20820;-75
2022/05/25 11:00:35;;;;;;;0.10;0.10;;;28.20;55.00;;;;;;5020428;28;20450;-76
2022/05/25 11:03:34;;;;;;;0.00;0.00;;;28.30;55.50;;;;;;5033490;28;20041;-75
2022/05/25 11:06:21;;;;;;;0.00;0.00;;;28.40;55.40;;;;;;5023795;28;20037;-75
2022/05/25 11:08:56;;;;;;;0.00;0.00;;;28.00;57.10;;;;;;5020193;28;20064;-76
2022/05/25 11:11:25;;;;;;;26.88;5.18;;;28.00;57.50;;;;;;5026845;28;20413;-75
2022/05/25 11:14:20;;;;;;;0.00;0.00;;;28.20;57.80;;;;;;5021038;28;20451;-75
2022/05/25 11:17:02;;;;;;;0.00;0.00;;;28.20;58.90;;;;;;5019547;28;20053;-75
2022/05/25 11:19:51;;;;;;;0.00;0.00;;;28.30;58.70;;;;;;5013688;28;20085;-74
2022/05/25 11:22:26;;;;;;;0.25;0.13;;;28.60;58.20;;;;;;4999347;28;20046;-74
2022/05/25 11:24:59;;;;;;;0.00;0.00;;;28.30;57.30;;;;;;5024869;28;20030;-77
2022/05/25 11:27:39;;;;;;;0.00;0.00;;;28.20;57.80;;;;;;5018445;28;20121;-75
2022/05/25 11:30:15;;;;;;;0.00;0.00;;;28.20;58.60;;;;;;5008852;28;20104;-76
2022/05/25 11:33:23;;;;;;;1.20;0.85;;;28.00;59.30;;;;;;5013239;28;20073;-74
2022/05/25 11:36:06;;;;;;;0.20;0.20;;;28.00;59.70;;;;;;5015062;28;20049;-75
2022/05/25 11:38:35;;;;;;;7.72;3.40;;;28.10;58.30;;;;;;5016387;28;20084;-76
2022/05/25 11:41:42;;;;;;;0.10;0.10;;;27.90;58.80;;;;;;5015356;28;20029;-73
2022/05/25 11:44:39;;;;;;;0.00;0.00;;;28.00;59.30;;;;;;5015566;28;20031;-75
2022/05/25 11:47:16;;;;;;;0.00;0.00;;;27.90;59.50;;;;;;5018696;28;20017;-73
2022/05/25 11:50:01;;;;;;;0.00;0.00;;;27.60;60.90;;;;;;5022579;28;20034;-75
2022/05/25 11:52:42;;;;;;;0.00;0.00;;;27.40;61.10;;;;;;5017568;28;20119;-75
2022/05/25 11:55:16;;;;;;;0.00;0.00;;;27.30;60.90;;;;;;5022784;28;20029;-75
2022/05/25 11:58:19;;;;;;;0.00;0.00;;;27.40;61.90;;;;;;5014492;28;20045;-75
2022/05/25 12:01:11;;;;;;;0.00;0.00;;;27.40;61.30;;;;;;5023993;28;20034;-73
2022/05/25 12:03:55;;;;;;;0.43;0.43;;;27.60;60.30;;;;;;5023326;28;20048;-73
2022/05/25 12:06:52;;;;;;;0.15;0.15;;;27.30;61.30;;;;;;5017887;28;20029;-73
2022/05/25 12:09:27;;;;;;;6.72;1.25;;;27.10;61.90;;;;;;5016265;28;20034;-73
2022/05/25 12:12:13;;;;;;;0.00;0.00;;;27.10;62.40;;;;;;5014105;28;20469;-74
2022/05/25 12:14:55;;;;;;;0.00;0.00;;;27.10;60.70;;;;;;5012741;28;20254;-73
2022/05/25 12:17:36;;;;;;;0.13;0.13;;;27.10;60.90;;;;;;5021440;28;20029;-73
2022/05/25 12:20:08;;;;;;;0.00;0.00;;;27.20;60.60;;;;;;5032240;28;20429;-73
2022/05/25 12:22:34;;;;;;;0.00;0.00;;;27.00;61.60;;;;;;5024572;28;20043;-71
2022/05/25 12:25:10;;;;;;;10.23;3.75;;;27.00;62.40;;;;;;5020157;28;20033;-74
2022/05/25 12:27:43;;;;;;;0.10;0.10;;;27.10;61.30;;;;;;5020787;28;20160;-73
2022/05/25 12:30:38;;;;;;;0.08;0.08;;;26.90;62.40;;;;;;5018336;28;20060;-73
2022/05/25 12:33:08;;;;;;;0.00;0.00;;;27.00;60.80;;;;;;5021224;28;20042;-72
2022/05/25 12:35:37;;;;;;;0.20;0.20;;;27.20;61.70;;;;;;5030955;28;20026;-73
2022/05/25 12:38:09;;;;;;;1.77;1.63;;;26.90;62.70;;;;;;5019828;28;20076;-74
2022/05/25 12:40:41;;;;;;;0.10;0.10;;;26.70;63.20;;;;;;5020717;28;20037;-74
2022/05/25 12:43:40;;;;;;;0.00;0.00;;;26.60;64.30;;;;;;5021032;28;20029;-74
2022/05/25 12:48:59;;;;;;;0.00;0.00;;;26.60;65.20;;;;;;5019377;28;20032;-73
2022/05/25 12:51:43;;;;;;;0.00;0.00;;;26.60;65.30;;;;;;5018991;28;20060;-72
2022/05/25 12:54:26;;;;;;;0.00;0.00;;;26.70;64.40;;;;;;5022776;28;20406;-72
2022/05/25 12:56:54;;;;;;;3.30;3.10;;;26.70;66.20;;;;;;5016673;28;20071;-73
2022/05/25 12:59:37;;;;;;;0.00;0.00;;;27.00;66.50;;;;;;5009962;28;20037;-73
2022/05/25 13:02:21;;;;;;;0.63;0.63;;;27.00;66.20;;;;;;5016049;28;20509;-73
2022/05/25 13:04:56;;;;;;;0.00;0.00;;;27.10;66.80;;;;;;5019025;28;20040;-73
2022/05/25 13:07:45;;;;;;;0.00;0.00;;;27.00;66.00;;;;;;5016019;28;20108;-73
2022/05/25 13:10:20;;;;;;;0.00;0.00;;;26.90;64.90;;;;;;5017296;28;20075;-73
2022/05/25 13:12:56;;;;;;;0.00;0.00;;;27.00;64.40;;;;;;5017755;28;20018;-72
2022/05/25 13:15:22;;;;;;;0.00;0.00;;;26.70;66.50;;;;;;5022368;28;20032;-75
2022/05/25 13:17:57;;;;;;;0.28;0.28;;;26.70;67.30;;;;;;5012222;28;20037;-74
2022/05/25 13:20:30;;;;;;;0.00;0.00;;;26.80;67.30;;;;;;5023145;28;20025;-73
2022/05/25 13:23:01;;;;;;;0.45;0.45;;;26.90;66.60;;;;;;5018043;28;20038;-73
2022/05/25 13:25:39;;;;;;;0.00;0.00;;;27.00;66.70;;;;;;5032723;28;20020;-72
2022/05/25 13:28:24;;;;;;;0.00;0.00;;;27.10;65.20;;;;;;5018458;28;20117;-74
2022/05/25 13:31:18;;;;;;;0.00;0.00;;;27.00;64.90;;;;;;5017104;28;20367;-73
2022/05/25 13:33:46;;;;;;;0.00;0.00;;;27.10;64.90;;;;;;5018960;28;20504;-73
2022/05/25 13:36:24;;;;;;;0.00;0.00;;;27.10;65.30;;;;;;5020994;28;20033;-73
2022/05/25 13:39:03;;;;;;;0.00;0.00;;;26.90;67.80;;;;;;5015652;28;20026;-75
2022/05/25 13:42:04;;;;;;;0.00;0.00;;;26.90;68.10;;;;;;5016181;28;20567;-74
2022/05/25 13:44:49;;;;;;;0.00;0.00;;;27.00;66.70;;;;;;5023026;28;20022;-73
2022/05/25 13:47:24;;;;;;;0.00;0.00;;;27.00;66.80;;;;;;5016132;28;20018;-73
2022/05/25 13:49:58;;;;;;;0.00;0.00;;;26.90;67.50;;;;;;5011853;28;20405;-73
2022/05/25 13:52:29;;;;;;;0.00;0.00;;;26.30;72.00;;;;;;5020519;28;20041;-76
2022/05/25 13:55:04;;;;;;;0.00;0.00;;;26.40;71.70;;;;;;5019048;28;20034;-72
2022/05/25 13:57:47;;;;;;;0.15;0.15;;;26.00;74.30;;;;;;5016180;28;20017;-74
2022/05/25 14:00:31;;;;;;;0.00;0.00;;;25.80;76.70;;;;;;5017035;28;20061;-74
2022/05/25 14:03:05;;;;;;;0.00;0.00;;;25.80;78.50;;;;;;5014348;28;20045;-75
2022/05/25 14:05:37;;;;;;;0.00;0.00;;;25.60;80.30;;;;;;5012725;28;20026;-73
2022/05/25 14:08:06;;;;;;;0.43;0.43;;;25.40;85.30;;;;;;5015918;28;20045;-75
2022/05/25 14:13:22;;;;;;;0.00;0.00;;;25.10;99.90;;;;;;5015443;28;20133;-75
2022/05/25 14:16:10;;;;;;;0.00;0.00;;;25.20;99.90;;;;;;5027299;28;20588;-74
2022/05/25 14:19:01;;;;;;;0.00;0.00;;;25.10;99.90;;;;;;5018984;28;20026;-72
2022/05/25 14:21:43;;;;;;;0.00;0.00;;;24.80;99.90;;;;;;5021037;28;20021;-73
2022/05/25 14:24:19;;;;;;;0.10;0.10;;;24.50;99.90;;;;;;5024866;28;20025;-72
2022/05/25 14:26:51;;;;;;;0.00;0.00;;;24.30;99.90;;;;;;5019591;28;20199;-77
2022/05/25 14:29:22;;;;;;;9.23;5.25;;;24.20;99.90;;;;;;5018401;28;20069;-72
2022/05/25 14:31:51;;;;;;;0.00;0.00;;;24.00;99.90;;;;;;5022418;28;20465;-73
2022/05/25 14:34:20;;;;;;;0.00;0.00;;;23.90;99.90;;;;;;5017361;28;20516;-74
2022/05/25 14:36:53;;;;;;;0.00;0.00;;;23.80;99.90;;;;;;5014541;28;20083;-74
2022/05/25 14:39:28;;;;;;;0.00;0.00;;;23.70;99.90;;;;;;5020957;28;20040;-73
2022/05/25 14:42:07;;;;;;;0.00;0.00;;;23.60;99.90;;;;;;5021076;28;20161;-73
2022/05/25 14:44:53;;;;;;;0.00;0.00;;;23.60;99.90;;;;;;5018985;28;20033;-74
2022/05/25 14:47:28;;;;;;;0.00;0.00;;;23.40;99.90;;;;;;5021796;28;20026;-76
2022/05/25 14:50:08;;;;;;;0.00;0.00;;;23.30;99.90;;;;;;5013552;28;20022;-74
2022/05/25 14:52:36;;;;;;;0.00;0.00;;;23.20;99.90;;;;;;5023723;28;20533;-74
2022/05/25 14:55:24;;;;;;;0.00;0.00;;;23.20;99.90;;;;;;5021436;28;20292;-74
2022/05/25 14:58:08;;;;;;;0.80;0.80;;;23.20;99.90;;;;;;5020432;28;20362;-74
2022/05/25 15:00:52;;;;;;;0.00;0.00;;;23.00;99.90;;;;;;5021307;28;20548;-74
2022/05/25 15:03:30;;;;;;;0.20;0.20;;;22.90;99.90;;;;;;5022024;28;20044;-73
2022/05/25 15:06:06;;;;;;;0.00;0.00;;;22.80;99.90;;;;;;5018896;28;20060;-73
2022/05/25 15:08:36;;;;;;;0.00;0.00;;;22.80;99.90;;;;;;5021948;28;20466;-73
2022/05/25 15:11:35;;;;;;;0.00;0.00;;;23.00;99.90;;;;;;5025775;28;20036;-73
2022/05/25 15:20:16;;;;;;;0.00;0.00;;;22.60;99.90;;;;;;5031277;28;20103;-73
2022/05/25 15:22:52;;;;;;;2.95;2.75;;;22.60;99.90;;;;;;5016841;28;20474;-73
2022/05/25 15:25:49;;;;;;;0.00;0.00;;;22.60;99.90;;;;;;5013858;28;20369;-73
2022/05/25 15:28:24;;;;;;;0.00;0.00;;;22.50;99.90;;;;;;5017235;28;20478;-73
2022/05/25 15:31:00;;;;;;;0.00;0.00;;;22.50;99.90;;;;;;5026438;28;20654;-73
2022/05/25 15:33:29;;;;;;;0.00;0.00;;;22.40;99.90;;;;;;5035373;28;20025;-74
2022/05/25 15:36:06;;;;;;;0.00;0.00;;;22.50;99.90;;;;;;5022587;28;20028;-73
2022/05/25 15:38:32;;;;;;;0.00;0.00;;;22.60;99.90;;;;;;5016960;28;20437;-74
2022/05/25 15:40:59;;;;;;;0.00;0.00;;;22.40;99.90;;;;;;5023586;28;20035;-79
2022/05/25 15:43:25;;;;;;;0.20;0.20;;;22.10;99.90;;;;;;5013745;28;20032;-74
2022/05/25 15:45:52;;;;;;;0.00;0.00;;;22.00;99.90;;;;;;5014031;28;20517;-73